Terminal Aerodrome Forecast
Issued by NWS

Home | Current Version | Previous Version | Text Only | Print | Product List | Glossary On
Versions: 1 2 3 4 5 6 7 8 9 10 11 12 13 14 15 16 17 18 19 20 21 22 23 24 25 26
000
FTUS43 KMQT 291100
TAFSAW
TAF
KSAW 291130Z 2912/3012 30005KT P6SM BKN080
     FM291600 36008KT P6SM VCSH SCT050 BKN080
      TEMPO 2918/2921 5SM -SHRA BKN050
     FM292200 01008KT P6SM SCT060
     FM300600 31003KT 3SM BR SCT005
      AMD LTD TO CLD VIS AND WIND 3002/3010=

USA.gov is the U.S. government's official web portal to all federal, state and local government web resources and services.